sensor_id;sensor_type;location;lat;lon;timestamp;P1;durP1;ratioP1;P2;durP2;ratioP2
34060;SDS011;20336;-33.424;-70.638;2022-12-19T00:00:41;12.57;;;3.00;;
34060;SDS011;20336;-33.424;-70.638;2022-12-19T00:03:07;13.15;;;3.15;;
34060;SDS011;20336;-33.424;-70.638;2022-12-19T00:05:35;6.13;;;2.83;;
34060;SDS011;20336;-33.424;-70.638;2022-12-19T00:08:02;10.63;;;3.30;;
34060;SDS011;20336;-33.424;-70.638;2022-12-19T00:10:29;11.07;;;3.30;;
34060;SDS011;20336;-33.424;-70.638;2022-12-19T00:12:56;9.30;;;3.60;;
34060;SDS011;20336;-33.424;-70.638;2022-12-19T00:15:23;12.18;;;3.40;;
34060;SDS011;20336;-33.424;-70.638;2022-12-19T00:17:50;8.35;;;2.70;;
34060;SDS011;20336;-33.424;-70.638;2022-12-19T00:20:17;12.65;;;3.10;;
34060;SDS011;20336;-33.424;-70.638;2022-12-19T00:22:44;9.35;;;2.75;;
34060;SDS011;20336;-33.424;-70.638;2022-12-19T00:25:11;8.20;;;2.85;;
34060;SDS011;20336;-33.424;-70.638;2022-12-19T00:27:37;9.48;;;2.90;;
34060;SDS011;20336;-33.424;-70.638;2022-12-19T00:30:05;16.15;;;2.90;;
34060;SDS011;20336;-33.424;-70.638;2022-12-19T00:32:32;6.53;;;2.78;;
34060;SDS011;20336;-33.424;-70.638;2022-12-19T00:34:58;10.75;;;2.83;;
34060;SDS011;20336;-33.424;-70.638;2022-12-19T00:37:26;9.23;;;2.80;;
34060;SDS011;20336;-33.424;-70.638;2022-12-19T00:39:53;8.88;;;2.75;;
34060;SDS011;20336;-33.424;-70.638;2022-12-19T00:42:19;7.55;;;2.35;;
34060;SDS011;20336;-33.424;-70.638;2022-12-19T00:44:46;6.05;;;2.30;;
34060;SDS011;20336;-33.424;-70.638;2022-12-19T00:47:13;11.13;;;2.58;;
34060;SDS011;20336;-33.424;-70.638;2022-12-19T00:49:40;7.30;;;2.60;;
34060;SDS011;20336;-33.424;-70.638;2022-12-19T00:52:07;7.35;;;2.28;;
34060;SDS011;20336;-33.424;-70.638;2022-12-19T00:54:34;8.43;;;2.78;;
34060;SDS011;20336;-33.424;-70.638;2022-12-19T00:57:00;8.18;;;2.47;;
34060;SDS011;20336;-33.424;-70.638;2022-12-19T00:59:27;12.45;;;2.70;;
34060;SDS011;20336;-33.424;-70.638;2022-12-19T01:01:54;11.15;;;2.63;;
34060;SDS011;20336;-33.424;-70.638;2022-12-19T01:04:21;8.45;;;2.47;;
34060;SDS011;20336;-33.424;-70.638;2022-12-19T01:06:48;7.85;;;2.60;;
34060;SDS011;20336;-33.424;-70.638;2022-12-19T01:09:15;9.02;;;2.35;;
34060;SDS011;20336;-33.424;-70.638;2022-12-19T01:11:42;5.30;;;2.55;;
34060;SDS011;20336;-33.424;-70.638;2022-12-19T01:14:28;8.13;;;2.40;;
34060;SDS011;20336;-33.424;-70.638;2022-12-19T01:16:55;7.78;;;2.60;;
34060;SDS011;20336;-33.424;-70.638;2022-12-19T01:19:22;9.52;;;2.45;;
34060;SDS011;20336;-33.424;-70.638;2022-12-19T01:21:48;7.97;;;2.22;;
34060;SDS011;20336;-33.424;-70.638;2022-12-19T01:24:15;10.95;;;1.98;;
34060;SDS011;20336;-33.424;-70.638;2022-12-19T01:26:42;8.65;;;2.47;;
34060;SDS011;20336;-33.424;-70.638;2022-12-19T01:29:09;6.72;;;2.25;;
34060;SDS011;20336;-33.424;-70.638;2022-12-19T01:31:36;12.48;;;2.47;;
34060;SDS011;20336;-33.424;-70.638;2022-12-19T01:34:02;4.97;;;2.25;;
34060;SDS011;20336;-33.424;-70.638;2022-12-19T01:36:29;6.57;;;2.20;;
34060;SDS011;20336;-33.424;-70.638;2022-12-19T01:38:59;7.50;;;1.92;;
34060;SDS011;20336;-33.424;-70.638;2022-12-19T01:41:26;7.70;;;1.88;;
34060;SDS011;20336;-33.424;-70.638;2022-12-19T01:43:55;9.60;;;1.90;;
34060;SDS011;20336;-33.424;-70.638;2022-12-19T01:46:24;6.50;;;2.20;;
34060;SDS011;20336;-33.424;-70.638;2022-12-19T01:48:52;8.10;;;2.05;;
34060;SDS011;20336;-33.424;-70.638;2022-12-19T01:51:20;7.85;;;2.38;;
34060;SDS011;20336;-33.424;-70.638;2022-12-19T01:53:56;5.63;;;1.98;;
34060;SDS011;20336;-33.424;-70.638;2022-12-19T01:56:28;4.10;;;1.88;;
34060;SDS011;20336;-33.424;-70.638;2022-12-19T01:58:57;10.02;;;1.95;;
34060;SDS011;20336;-33.424;-70.638;2022-12-19T02:01:25;4.70;;;1.95;;
34060;SDS011;20336;-33.424;-70.638;2022-12-19T02:03:52;6.40;;;2.28;;
34060;SDS011;20336;-33.424;-70.638;2022-12-19T02:06:20;5.97;;;2.05;;
34060;SDS011;20336;-33.424;-70.638;2022-12-19T02:08:47;8.05;;;2.03;;
34060;SDS011;20336;-33.424;-70.638;2022-12-19T02:11:14;7.68;;;2.10;;
34060;SDS011;20336;-33.424;-70.638;2022-12-19T02:13:41;7.35;;;2.03;;
34060;SDS011;20336;-33.424;-70.638;2022-12-19T02:16:15;7.03;;;1.88;;
34060;SDS011;20336;-33.424;-70.638;2022-12-19T02:18:52;7.00;;;1.90;;
34060;SDS011;20336;-33.424;-70.638;2022-12-19T02:23:54;11.85;;;2.38;;
34060;SDS011;20336;-33.424;-70.638;2022-12-19T02:29:17;7.38;;;1.88;;
34060;SDS011;20336;-33.424;-70.638;2022-12-19T02:36:49;9.02;;;2.35;;
34060;SDS011;20336;-33.424;-70.638;2022-12-19T02:39:24;6.60;;;2.20;;
34060;SDS011;20336;-33.424;-70.638;2022-12-19T02:41:55;9.25;;;2.17;;
34060;SDS011;20336;-33.424;-70.638;2022-12-19T02:46:50;5.95;;;2.10;;
34060;SDS011;20336;-33.424;-70.638;2022-12-19T02:49:17;8.75;;;2.10;;
34060;SDS011;20336;-33.424;-70.638;2022-12-19T02:51:44;11.98;;;2.45;;
34060;SDS011;20336;-33.424;-70.638;2022-12-19T02:54:11;9.82;;;2.05;;
34060;SDS011;20336;-33.424;-70.638;2022-12-19T03:02:07;5.90;;;1.85;;
34060;SDS011;20336;-33.424;-70.638;2022-12-19T03:07:28;7.45;;;2.00;;
34060;SDS011;20336;-33.424;-70.638;2022-12-19T03:12:59;6.50;;;2.15;;
34060;SDS011;20336;-33.424;-70.638;2022-12-19T03:15:27;8.30;;;2.00;;
34060;SDS011;20336;-33.424;-70.638;2022-12-19T03:17:55;4.80;;;2.00;;
34060;SDS011;20336;-33.424;-70.638;2022-12-19T03:23:02;11.52;;;2.15;;
34060;SDS011;20336;-33.424;-70.638;2022-12-19T03:25:28;5.20;;;1.90;;
34060;SDS011;20336;-33.424;-70.638;2022-12-19T03:27:56;12.95;;;2.15;;
34060;SDS011;20336;-33.424;-70.638;2022-12-19T03:41:37;4.30;;;2.05;;
34060;SDS011;20336;-33.424;-70.638;2022-12-19T03:44:23;4.75;;;1.88;;
34060;SDS011;20336;-33.424;-70.638;2022-12-19T03:47:03;9.50;;;2.85;;
34060;SDS011;20336;-33.424;-70.638;2022-12-19T03:49:31;7.43;;;2.42;;
34060;SDS011;20336;-33.424;-70.638;2022-12-19T03:54:29;9.23;;;2.67;;
34060;SDS011;20336;-33.424;-70.638;2022-12-19T03:57:18;12.38;;;2.45;;
34060;SDS011;20336;-33.424;-70.638;2022-12-19T04:02:40;8.38;;;2.47;;
34060;SDS011;20336;-33.424;-70.638;2022-12-19T04:05:09;4.95;;;2.65;;
34060;SDS011;20336;-33.424;-70.638;2022-12-19T04:07:37;8.15;;;3.70;;
34060;SDS011;20336;-33.424;-70.638;2022-12-19T04:10:05;6.20;;;2.58;;
34060;SDS011;20336;-33.424;-70.638;2022-12-19T04:12:33;11.38;;;2.10;;
34060;SDS011;20336;-33.424;-70.638;2022-12-19T04:15:02;8.65;;;2.63;;
34060;SDS011;20336;-33.424;-70.638;2022-12-19T04:22:35;5.95;;;1.95;;
34060;SDS011;20336;-33.424;-70.638;2022-12-19T04:25:07;11.02;;;2.50;;
34060;SDS011;20336;-33.424;-70.638;2022-12-19T04:27:36;6.50;;;2.10;;
34060;SDS011;20336;-33.424;-70.638;2022-12-19T04:30:04;4.97;;;2.13;;
34060;SDS011;20336;-33.424;-70.638;2022-12-19T04:32:32;5.32;;;1.77;;
34060;SDS011;20336;-33.424;-70.638;2022-12-19T04:35:00;5.72;;;1.92;;
34060;SDS011;20336;-33.424;-70.638;2022-12-19T04:37:27;6.20;;;2.35;;
34060;SDS011;20336;-33.424;-70.638;2022-12-19T04:39:54;7.25;;;2.25;;
34060;SDS011;20336;-33.424;-70.638;2022-12-19T04:42:21;4.50;;;2.20;;
34060;SDS011;20336;-33.424;-70.638;2022-12-19T04:44:48;7.22;;;1.85;;
34060;SDS011;20336;-33.424;-70.638;2022-12-19T04:47:15;5.63;;;1.98;;
34060;SDS011;20336;-33.424;-70.638;2022-12-19T04:49:42;7.88;;;2.30;;
34060;SDS011;20336;-33.424;-70.638;2022-12-19T04:52:09;8.30;;;2.33;;
34060;SDS011;20336;-33.424;-70.638;2022-12-19T04:54:36;5.47;;;2.10;;
34060;SDS011;20336;-33.424;-70.638;2022-12-19T04:57:02;7.78;;;2.55;;
34060;SDS011;20336;-33.424;-70.638;2022-12-19T04:59:29;5.50;;;2.33;;
34060;SDS011;20336;-33.424;-70.638;2022-12-19T05:01:56;7.72;;;2.00;;
34060;SDS011;20336;-33.424;-70.638;2022-12-19T05:04:23;7.03;;;1.92;;
34060;SDS011;20336;-33.424;-70.638;2022-12-19T05:06:50;6.97;;;2.05;;
34060;SDS011;20336;-33.424;-70.638;2022-12-19T05:09:17;4.65;;;1.70;;
34060;SDS011;20336;-33.424;-70.638;2022-12-19T05:11:44;6.80;;;2.03;;
34060;SDS011;20336;-33.424;-70.638;2022-12-19T05:14:10;3.35;;;1.80;;
34060;SDS011;20336;-33.424;-70.638;2022-12-19T05:16:37;7.53;;;2.08;;
34060;SDS011;20336;-33.424;-70.638;2022-12-19T05:19:04;5.50;;;1.98;;
34060;SDS011;20336;-33.424;-70.638;2022-12-19T05:21:31;6.15;;;2.30;;
34060;SDS011;20336;-33.424;-70.638;2022-12-19T05:23:58;3.42;;;2.00;;
34060;SDS011;20336;-33.424;-70.638;2022-12-19T05:26:27;6.78;;;2.05;;
34060;SDS011;20336;-33.424;-70.638;2022-12-19T05:28:54;5.43;;;2.00;;
34060;SDS011;20336;-33.424;-70.638;2022-12-19T05:31:21;5.93;;;1.60;;
34060;SDS011;20336;-33.424;-70.638;2022-12-19T05:33:48;5.68;;;2.00;;
34060;SDS011;20336;-33.424;-70.638;2022-12-19T05:36:15;4.75;;;1.83;;
34060;SDS011;20336;-33.424;-70.638;2022-12-19T05:38:42;6.63;;;2.63;;
34060;SDS011;20336;-33.424;-70.638;2022-12-19T05:41:10;6.25;;;2.50;;
34060;SDS011;20336;-33.424;-70.638;2022-12-19T05:43:39;6.75;;;2.40;;
34060;SDS011;20336;-33.424;-70.638;2022-12-19T05:46:06;6.57;;;2.13;;
34060;SDS011;20336;-33.424;-70.638;2022-12-19T05:48:33;8.80;;;2.20;;
34060;SDS011;20336;-33.424;-70.638;2022-12-19T05:51:00;6.75;;;2.42;;
34060;SDS011;20336;-33.424;-70.638;2022-12-19T05:53:27;4.72;;;2.05;;
34060;SDS011;20336;-33.424;-70.638;2022-12-19T05:56:07;5.47;;;2.17;;
34060;SDS011;20336;-33.424;-70.638;2022-12-19T05:58:35;7.28;;;2.30;;
34060;SDS011;20336;-33.424;-70.638;2022-12-19T06:01:09;5.90;;;2.40;;
34060;SDS011;20336;-33.424;-70.638;2022-12-19T06:03:36;6.10;;;2.47;;
34060;SDS011;20336;-33.424;-70.638;2022-12-19T06:06:04;5.03;;;2.33;;
34060;SDS011;20336;-33.424;-70.638;2022-12-19T06:08:32;7.35;;;2.22;;
34060;SDS011;20336;-33.424;-70.638;2022-12-19T06:11:00;5.47;;;2.17;;
34060;SDS011;20336;-33.424;-70.638;2022-12-19T06:13:27;6.53;;;2.75;;
34060;SDS011;20336;-33.424;-70.638;2022-12-19T06:16:01;5.85;;;2.30;;
34060;SDS011;20336;-33.424;-70.638;2022-12-19T06:18:28;7.22;;;2.20;;
34060;SDS011;20336;-33.424;-70.638;2022-12-19T06:20:56;4.18;;;2.05;;
34060;SDS011;20336;-33.424;-70.638;2022-12-19T06:23:23;6.63;;;2.33;;
34060;SDS011;20336;-33.424;-70.638;2022-12-19T06:25:50;5.00;;;2.65;;
34060;SDS011;20336;-33.424;-70.638;2022-12-19T06:28:17;5.25;;;2.40;;
34060;SDS011;20336;-33.424;-70.638;2022-12-19T06:30:44;6.97;;;2.47;;
34060;SDS011;20336;-33.424;-70.638;2022-12-19T06:33:11;5.18;;;2.20;;
34060;SDS011;20336;-33.424;-70.638;2022-12-19T06:35:38;7.10;;;2.25;;
34060;SDS011;20336;-33.424;-70.638;2022-12-19T06:38:05;7.55;;;2.92;;
34060;SDS011;20336;-33.424;-70.638;2022-12-19T06:40:32;5.35;;;2.50;;
34060;SDS011;20336;-33.424;-70.638;2022-12-19T06:43:17;4.70;;;2.20;;
34060;SDS011;20336;-33.424;-70.638;2022-12-19T06:45:44;9.27;;;2.63;;
34060;SDS011;20336;-33.424;-70.638;2022-12-19T06:48:10;5.38;;;2.30;;
34060;SDS011;20336;-33.424;-70.638;2022-12-19T06:50:37;4.65;;;2.45;;
34060;SDS011;20336;-33.424;-70.638;2022-12-19T06:53:04;6.40;;;2.50;;
34060;SDS011;20336;-33.424;-70.638;2022-12-19T06:55:31;4.75;;;2.80;;
34060;SDS011;20336;-33.424;-70.638;2022-12-19T06:58:00;7.28;;;2.45;;
34060;SDS011;20336;-33.424;-70.638;2022-12-19T07:00:27;5.43;;;2.47;;
34060;SDS011;20336;-33.424;-70.638;2022-12-19T07:02:54;5.85;;;2.63;;
34060;SDS011;20336;-33.424;-70.638;2022-12-19T07:05:22;7.65;;;2.97;;
34060;SDS011;20336;-33.424;-70.638;2022-12-19T07:07:49;6.10;;;2.47;;
34060;SDS011;20336;-33.424;-70.638;2022-12-19T07:10:16;6.78;;;2.50;;
34060;SDS011;20336;-33.424;-70.638;2022-12-19T07:12:43;6.88;;;2.92;;
34060;SDS011;20336;-33.424;-70.638;2022-12-19T07:15:10;7.95;;;2.80;;
34060;SDS011;20336;-33.424;-70.638;2022-12-19T07:17:37;6.45;;;3.25;;
34060;SDS011;20336;-33.424;-70.638;2022-12-19T07:20:04;5.90;;;2.80;;
34060;SDS011;20336;-33.424;-70.638;2022-12-19T07:22:32;5.28;;;2.50;;
34060;SDS011;20336;-33.424;-70.638;2022-12-19T07:25:00;5.85;;;2.55;;
34060;SDS011;20336;-33.424;-70.638;2022-12-19T07:27:27;8.35;;;2.92;;
34060;SDS011;20336;-33.424;-70.638;2022-12-19T07:29:54;9.35;;;3.08;;
34060;SDS011;20336;-33.424;-70.638;2022-12-19T07:32:21;5.55;;;2.45;;
34060;SDS011;20336;-33.424;-70.638;2022-12-19T07:34:48;7.20;;;2.70;;
34060;SDS011;20336;-33.424;-70.638;2022-12-19T07:37:15;8.80;;;3.20;;
34060;SDS011;20336;-33.424;-70.638;2022-12-19T07:39:41;10.80;;;3.05;;
34060;SDS011;20336;-33.424;-70.638;2022-12-19T07:42:08;7.47;;;3.30;;
34060;SDS011;20336;-33.424;-70.638;2022-12-19T07:44:35;7.18;;;2.80;;
34060;SDS011;20336;-33.424;-70.638;2022-12-19T07:47:02;7.75;;;2.55;;
34060;SDS011;20336;-33.424;-70.638;2022-12-19T07:49:34;7.90;;;2.83;;
34060;SDS011;20336;-33.424;-70.638;2022-12-19T07:52:02;5.13;;;2.88;;
34060;SDS011;20336;-33.424;-70.638;2022-12-19T07:54:29;9.13;;;3.42;;
34060;SDS011;20336;-33.424;-70.638;2022-12-19T07:56:55;8.15;;;2.65;;
34060;SDS011;20336;-33.424;-70.638;2022-12-19T07:59:22;7.47;;;3.33;;
34060;SDS011;20336;-33.424;-70.638;2022-12-19T08:01:49;7.18;;;2.92;;
34060;SDS011;20336;-33.424;-70.638;2022-12-19T08:04:16;11.23;;;3.30;;
34060;SDS011;20336;-33.424;-70.638;2022-12-19T08:06:43;5.57;;;3.03;;
34060;SDS011;20336;-33.424;-70.638;2022-12-19T08:09:11;10.38;;;3.20;;
34060;SDS011;20336;-33.424;-70.638;2022-12-19T08:11:37;9.90;;;3.08;;
34060;SDS011;20336;-33.424;-70.638;2022-12-19T08:14:04;13.07;;;3.50;;
34060;SDS011;20336;-33.424;-70.638;2022-12-19T08:16:31;6.68;;;3.40;;
34060;SDS011;20336;-33.424;-70.638;2022-12-19T08:18:58;8.82;;;3.53;;
34060;SDS011;20336;-33.424;-70.638;2022-12-19T08:21:25;7.60;;;3.40;;
34060;SDS011;20336;-33.424;-70.638;2022-12-19T08:23:52;7.43;;;3.63;;
34060;SDS011;20336;-33.424;-70.638;2022-12-19T08:26:19;14.30;;;3.67;;
34060;SDS011;20336;-33.424;-70.638;2022-12-19T08:28:50;8.70;;;3.03;;
34060;SDS011;20336;-33.424;-70.638;2022-12-19T08:31:17;6.43;;;3.03;;
34060;SDS011;20336;-33.424;-70.638;2022-12-19T08:33:44;6.45;;;3.28;;
34060;SDS011;20336;-33.424;-70.638;2022-12-19T08:36:15;8.07;;;3.53;;
34060;SDS011;20336;-33.424;-70.638;2022-12-19T08:38:45;9.20;;;3.00;;
34060;SDS011;20336;-33.424;-70.638;2022-12-19T08:41:13;7.82;;;3.15;;
34060;SDS011;20336;-33.424;-70.638;2022-12-19T08:43:41;3.37;;;2.30;;
34060;SDS011;20336;-33.424;-70.638;2022-12-19T08:46:08;10.20;;;3.78;;
34060;SDS011;20336;-33.424;-70.638;2022-12-19T08:48:35;10.43;;;3.30;;
34060;SDS011;20336;-33.424;-70.638;2022-12-19T08:51:04;9.68;;;3.55;;
34060;SDS011;20336;-33.424;-70.638;2022-12-19T08:53:32;11.55;;;3.97;;
34060;SDS011;20336;-33.424;-70.638;2022-12-19T08:56:01;9.30;;;3.63;;
34060;SDS011;20336;-33.424;-70.638;2022-12-19T08:58:28;6.35;;;3.42;;
34060;SDS011;20336;-33.424;-70.638;2022-12-19T09:00:59;9.00;;;4.23;;
34060;SDS011;20336;-33.424;-70.638;2022-12-19T09:03:26;9.32;;;4.00;;
34060;SDS011;20336;-33.424;-70.638;2022-12-19T09:05:54;8.27;;;4.13;;
34060;SDS011;20336;-33.424;-70.638;2022-12-19T09:08:22;13.07;;;4.33;;
34060;SDS011;20336;-33.424;-70.638;2022-12-19T09:10:49;11.27;;;4.77;;
34060;SDS011;20336;-33.424;-70.638;2022-12-19T09:13:16;12.77;;;4.20;;
34060;SDS011;20336;-33.424;-70.638;2022-12-19T09:15:42;65.93;;;8.97;;
34060;SDS011;20336;-33.424;-70.638;2022-12-19T09:18:09;29.40;;;6.13;;
34060;SDS011;20336;-33.424;-70.638;2022-12-19T09:20:36;10.07;;;4.50;;
34060;SDS011;20336;-33.424;-70.638;2022-12-19T09:23:03;40.10;;;8.33;;
34060;SDS011;20336;-33.424;-70.638;2022-12-19T09:25:30;27.27;;;6.03;;
34060;SDS011;20336;-33.424;-70.638;2022-12-19T09:27:57;16.00;;;4.87;;
34060;SDS011;20336;-33.424;-70.638;2022-12-19T09:30:23;10.70;;;3.80;;
34060;SDS011;20336;-33.424;-70.638;2022-12-19T09:32:50;9.43;;;4.00;;
34060;SDS011;20336;-33.424;-70.638;2022-12-19T09:35:17;8.93;;;3.80;;
34060;SDS011;20336;-33.424;-70.638;2022-12-19T09:37:44;11.50;;;4.17;;
34060;SDS011;20336;-33.424;-70.638;2022-12-19T09:40:11;9.00;;;4.40;;
34060;SDS011;20336;-33.424;-70.638;2022-12-19T09:45:11;10.17;;;4.33;;
34060;SDS011;20336;-33.424;-70.638;2022-12-19T09:47:42;7.57;;;3.70;;
34060;SDS011;20336;-33.424;-70.638;2022-12-19T09:50:22;10.23;;;3.90;;
34060;SDS011;20336;-33.424;-70.638;2022-12-19T09:52:54;10.40;;;3.70;;
34060;SDS011;20336;-33.424;-70.638;2022-12-19T09:55:25;13.43;;;4.77;;
34060;SDS011;20336;-33.424;-70.638;2022-12-19T10:00:23;10.13;;;4.30;;
34060;SDS011;20336;-33.424;-70.638;2022-12-19T10:03:13;10.77;;;4.47;;
34060;SDS011;20336;-33.424;-70.638;2022-12-19T10:05:44;5.50;;;3.27;;
34060;SDS011;20336;-33.424;-70.638;2022-12-19T10:08:22;10.80;;;3.67;;
34060;SDS011;20336;-33.424;-70.638;2022-12-19T10:15:57;12.83;;;3.83;;
34060;SDS011;20336;-33.424;-70.638;2022-12-19T10:18:34;11.77;;;4.07;;
34060;SDS011;20336;-33.424;-70.638;2022-12-19T10:21:08;8.17;;;3.83;;
34060;SDS011;20336;-33.424;-70.638;2022-12-19T10:23:50;16.08;;;4.43;;
34060;SDS011;20336;-33.424;-70.638;2022-12-19T10:26:40;12.50;;;5.03;;
34060;SDS011;20336;-33.424;-70.638;2022-12-19T10:34:15;16.80;;;5.18;;
34060;SDS011;20336;-33.424;-70.638;2022-12-19T10:36:45;10.15;;;4.82;;
34060;SDS011;20336;-33.424;-70.638;2022-12-19T10:42:52;12.55;;;4.90;;
34060;SDS011;20336;-33.424;-70.638;2022-12-19T10:44:58;16.48;;;4.95;;
34060;SDS011;20336;-33.424;-70.638;2022-12-19T10:47:27;12.68;;;5.25;;
34060;SDS011;20336;-33.424;-70.638;2022-12-19T10:49:54;13.95;;;4.88;;
34060;SDS011;20336;-33.424;-70.638;2022-12-19T10:55:19;9.88;;;4.80;;
34060;SDS011;20336;-33.424;-70.638;2022-12-19T10:57:46;15.77;;;4.97;;
34060;SDS011;20336;-33.424;-70.638;2022-12-19T11:00:15;14.05;;;4.75;;
34060;SDS011;20336;-33.424;-70.638;2022-12-19T11:02:43;14.50;;;5.30;;
34060;SDS011;20336;-33.424;-70.638;2022-12-19T11:08:03;17.30;;;5.10;;
34060;SDS011;20336;-33.424;-70.638;2022-12-19T11:10:41;11.27;;;4.60;;
34060;SDS011;20336;-33.424;-70.638;2022-12-19T11:13:54;10.25;;;5.03;;
34060;SDS011;20336;-33.424;-70.638;2022-12-19T11:15:56;11.18;;;4.80;;
34060;SDS011;20336;-33.424;-70.638;2022-12-19T11:18:24;10.57;;;4.50;;
34060;SDS011;20336;-33.424;-70.638;2022-12-19T11:24:03;9.40;;;4.38;;
34060;SDS011;20336;-33.424;-70.638;2022-12-19T11:29:15;18.75;;;4.65;;
34060;SDS011;20336;-33.424;-70.638;2022-12-19T11:31:43;9.40;;;4.05;;
34060;SDS011;20336;-33.424;-70.638;2022-12-19T11:34:18;10.48;;;4.88;;
34060;SDS011;20336;-33.424;-70.638;2022-12-19T11:36:48;15.88;;;5.00;;
34060;SDS011;20336;-33.424;-70.638;2022-12-19T11:39:18;13.25;;;4.57;;
34060;SDS011;20336;-33.424;-70.638;2022-12-19T11:41:48;11.60;;;5.00;;
34060;SDS011;20336;-33.424;-70.638;2022-12-19T11:46:58;15.05;;;5.00;;
34060;SDS011;20336;-33.424;-70.638;2022-12-19T11:49:39;13.93;;;5.30;;
34060;SDS011;20336;-33.424;-70.638;2022-12-19T11:55:09;12.80;;;5.28;;
34060;SDS011;20336;-33.424;-70.638;2022-12-19T11:57:40;12.98;;;5.13;;
34060;SDS011;20336;-33.424;-70.638;2022-12-19T12:00:11;16.35;;;5.50;;
34060;SDS011;20336;-33.424;-70.638;2022-12-19T12:03:16;12.88;;;5.63;;
34060;SDS011;20336;-33.424;-70.638;2022-12-19T12:05:41;18.30;;;6.60;;
34060;SDS011;20336;-33.424;-70.638;2022-12-19T12:08:17;18.05;;;6.05;;
34060;SDS011;20336;-33.424;-70.638;2022-12-19T12:10:56;17.23;;;6.53;;
34060;SDS011;20336;-33.424;-70.638;2022-12-19T12:13:36;15.35;;;6.40;;
34060;SDS011;20336;-33.424;-70.638;2022-12-19T12:16:07;19.35;;;6.88;;
34060;SDS011;20336;-33.424;-70.638;2022-12-19T12:18:38;16.65;;;7.00;;
34060;SDS011;20336;-33.424;-70.638;2022-12-19T12:21:22;20.33;;;7.30;;
34060;SDS011;20336;-33.424;-70.638;2022-12-19T12:26:23;14.05;;;6.30;;
34060;SDS011;20336;-33.424;-70.638;2022-12-19T12:31:40;14.05;;;7.18;;
34060;SDS011;20336;-33.424;-70.638;2022-12-19T12:45:18;19.30;;;7.55;;
34060;SDS011;20336;-33.424;-70.638;2022-12-19T12:47:46;15.82;;;7.75;;
34060;SDS011;20336;-33.424;-70.638;2022-12-19T12:50:14;17.95;;;8.95;;
34060;SDS011;20336;-33.424;-70.638;2022-12-19T12:52:45;17.63;;;7.63;;
34060;SDS011;20336;-33.424;-70.638;2022-12-19T12:57:46;21.13;;;8.38;;
34060;SDS011;20336;-33.424;-70.638;2022-12-19T13:02:41;20.67;;;7.80;;
34060;SDS011;20336;-33.424;-70.638;2022-12-19T13:05:22;21.83;;;7.40;;
34060;SDS011;20336;-33.424;-70.638;2022-12-19T13:07:52;23.40;;;8.65;;
34060;SDS011;20336;-33.424;-70.638;2022-12-19T13:10:21;20.90;;;7.65;;
34060;SDS011;20336;-33.424;-70.638;2022-12-19T13:12:53;17.25;;;7.35;;
34060;SDS011;20336;-33.424;-70.638;2022-12-19T13:28:12;15.40;;;7.28;;
34060;SDS011;20336;-33.424;-70.638;2022-12-19T13:30:39;25.58;;;8.52;;
34060;SDS011;20336;-33.424;-70.638;2022-12-19T13:33:25;23.50;;;7.63;;
34060;SDS011;20336;-33.424;-70.638;2022-12-19T13:38:56;22.65;;;7.65;;
34060;SDS011;20336;-33.424;-70.638;2022-12-19T13:41:29;16.95;;;7.40;;
34060;SDS011;20336;-33.424;-70.638;2022-12-19T13:44:17;22.05;;;6.65;;
34060;SDS011;20336;-33.424;-70.638;2022-12-19T13:46:45;12.88;;;6.97;;
34060;SDS011;20336;-33.424;-70.638;2022-12-19T13:49:20;20.42;;;7.13;;
34060;SDS011;20336;-33.424;-70.638;2022-12-19T13:51:52;19.63;;;7.18;;
34060;SDS011;20336;-33.424;-70.638;2022-12-19T13:55:10;18.80;;;6.43;;
34060;SDS011;20336;-33.424;-70.638;2022-12-19T14:00:09;18.85;;;5.93;;
34060;SDS011;20336;-33.424;-70.638;2022-12-19T14:02:37;15.50;;;6.03;;
34060;SDS011;20336;-33.424;-70.638;2022-12-19T14:05:05;19.20;;;6.65;;
34060;SDS011;20336;-33.424;-70.638;2022-12-19T14:07:40;15.45;;;5.57;;
34060;SDS011;20336;-33.424;-70.638;2022-12-19T14:10:13;12.77;;;4.82;;
34060;SDS011;20336;-33.424;-70.638;2022-12-19T14:12:41;14.05;;;5.43;;
34060;SDS011;20336;-33.424;-70.638;2022-12-19T14:15:48;12.48;;;5.35;;
34060;SDS011;20336;-33.424;-70.638;2022-12-19T14:18:25;13.77;;;5.45;;
34060;SDS011;20336;-33.424;-70.638;2022-12-19T14:23:38;15.90;;;4.88;;
34060;SDS011;20336;-33.424;-70.638;2022-12-19T14:26:26;12.57;;;5.20;;
34060;SDS011;20336;-33.424;-70.638;2022-12-19T14:31:20;19.77;;;5.20;;
34060;SDS011;20336;-33.424;-70.638;2022-12-19T14:33:48;14.90;;;4.57;;
34060;SDS011;20336;-33.424;-70.638;2022-12-19T14:36:33;20.15;;;4.65;;
34060;SDS011;20336;-33.424;-70.638;2022-12-19T14:39:02;16.88;;;5.65;;
34060;SDS011;20336;-33.424;-70.638;2022-12-19T14:44:15;16.13;;;4.85;;
34060;SDS011;20336;-33.424;-70.638;2022-12-19T14:46:42;12.77;;;5.10;;
34060;SDS011;20336;-33.424;-70.638;2022-12-19T14:49:25;14.32;;;5.40;;
34060;SDS011;20336;-33.424;-70.638;2022-12-19T14:51:52;17.98;;;5.38;;
34060;SDS011;20336;-33.424;-70.638;2022-12-19T14:54:20;20.55;;;5.10;;
34060;SDS011;20336;-33.424;-70.638;2022-12-19T14:56:55;18.13;;;4.88;;
34060;SDS011;20336;-33.424;-70.638;2022-12-19T15:07:05;12.63;;;4.88;;
34060;SDS011;20336;-33.424;-70.638;2022-12-19T15:09:37;21.20;;;4.38;;
34060;SDS011;20336;-33.424;-70.638;2022-12-19T15:12:11;9.57;;;4.10;;
34060;SDS011;20336;-33.424;-70.638;2022-12-19T15:15:14;17.60;;;4.72;;
34060;SDS011;20336;-33.424;-70.638;2022-12-19T15:17:44;15.68;;;5.30;;
34060;SDS011;20336;-33.424;-70.638;2022-12-19T15:20:11;23.13;;;4.95;;
34060;SDS011;20336;-33.424;-70.638;2022-12-19T15:22:38;17.75;;;5.30;;
34060;SDS011;20336;-33.424;-70.638;2022-12-19T15:25:05;19.25;;;4.78;;
34060;SDS011;20336;-33.424;-70.638;2022-12-19T15:27:32;18.13;;;5.25;;
34060;SDS011;20336;-33.424;-70.638;2022-12-19T15:29:59;20.73;;;5.63;;
34060;SDS011;20336;-33.424;-70.638;2022-12-19T15:32:26;13.02;;;4.72;;
34060;SDS011;20336;-33.424;-70.638;2022-12-19T15:34:53;13.20;;;4.82;;
34060;SDS011;20336;-33.424;-70.638;2022-12-19T15:37:20;21.80;;;5.00;;
34060;SDS011;20336;-33.424;-70.638;2022-12-19T15:39:47;15.73;;;4.97;;
34060;SDS011;20336;-33.424;-70.638;2022-12-19T15:42:15;16.48;;;5.38;;
34060;SDS011;20336;-33.424;-70.638;2022-12-19T15:44:43;18.08;;;5.03;;
34060;SDS011;20336;-33.424;-70.638;2022-12-19T15:47:14;16.10;;;4.75;;
34060;SDS011;20336;-33.424;-70.638;2022-12-19T15:49:42;15.48;;;5.18;;
34060;SDS011;20336;-33.424;-70.638;2022-12-19T15:52:15;10.50;;;5.00;;
34060;SDS011;20336;-33.424;-70.638;2022-12-19T15:54:43;24.65;;;5.22;;
34060;SDS011;20336;-33.424;-70.638;2022-12-19T15:57:29;15.73;;;4.97;;
34060;SDS011;20336;-33.424;-70.638;2022-12-19T15:59:58;13.63;;;5.70;;
34060;SDS011;20336;-33.424;-70.638;2022-12-19T16:02:26;40.63;;;5.85;;
34060;SDS011;20336;-33.424;-70.638;2022-12-19T16:04:53;16.85;;;4.78;;
34060;SDS011;20336;-33.424;-70.638;2022-12-19T16:07:21;12.90;;;4.82;;
34060;SDS011;20336;-33.424;-70.638;2022-12-19T16:09:50;14.25;;;4.72;;
34060;SDS011;20336;-33.424;-70.638;2022-12-19T16:12:18;16.25;;;4.43;;
34060;SDS011;20336;-33.424;-70.638;2022-12-19T16:14:45;14.60;;;4.70;;
34060;SDS011;20336;-33.424;-70.638;2022-12-19T16:17:20;7.38;;;4.05;;
34060;SDS011;20336;-33.424;-70.638;2022-12-19T16:19:48;11.50;;;4.22;;
34060;SDS011;20336;-33.424;-70.638;2022-12-19T16:22:17;16.50;;;4.85;;
34060;SDS011;20336;-33.424;-70.638;2022-12-19T16:24:44;15.07;;;4.38;;
34060;SDS011;20336;-33.424;-70.638;2022-12-19T16:27:21;14.23;;;4.30;;
34060;SDS011;20336;-33.424;-70.638;2022-12-19T16:29:49;16.20;;;4.43;;
34060;SDS011;20336;-33.424;-70.638;2022-12-19T16:32:15;11.40;;;4.00;;
34060;SDS011;20336;-33.424;-70.638;2022-12-19T16:34:42;15.52;;;4.32;;
34060;SDS011;20336;-33.424;-70.638;2022-12-19T16:37:09;11.75;;;4.22;;